sensor_id;sensor_type;location;lat;lon;timestamp;temperature;humidity
6609;DHT22;61468;48.79282455;9.06262200;2022-07-15T00:02:08;25.30;1.00
6609;DHT22;61468;48.79282455;9.06262200;2022-07-15T00:04:52;25.30;1.00
6609;DHT22;61468;48.79282455;9.06262200;2022-07-15T00:07:36;25.30;1.00
6609;DHT22;61468;48.79282455;9.06262200;2022-07-15T00:10:21;25.30;1.00
6609;DHT22;61468;48.79282455;9.06262200;2022-07-15T00:13:07;25.30;1.00
6609;DHT22;61468;48.79282455;9.06262200;2022-07-15T00:15:51;25.30;1.00
6609;DHT22;61468;48.79282455;9.06262200;2022-07-15T00:18:35;25.30;1.00
6609;DHT22;61468;48.79282455;9.06262200;2022-07-15T00:21:19;25.30;1.00
6609;DHT22;61468;48.79282455;9.06262200;2022-07-15T00:24:04;25.30;1.00
6609;DHT22;61468;48.79282455;9.06262200;2022-07-15T00:26:48;25.20;1.00
6609;DHT22;61468;48.79282455;9.06262200;2022-07-15T00:29:32;25.20;1.00
6609;DHT22;61468;48.79282455;9.06262200;2022-07-15T00:32:17;25.30;1.00
6609;DHT22;61468;48.79282455;9.06262200;2022-07-15T00:35:01;25.20;1.00
6609;DHT22;61468;48.79282455;9.06262200;2022-07-15T00:37:45;25.20;1.00
6609;DHT22;61468;48.79282455;9.06262200;2022-07-15T00:40:30;25.20;1.00
6609;DHT22;61468;48.79282455;9.06262200;2022-07-15T00:43:16;25.20;1.00
6609;DHT22;61468;48.79282455;9.06262200;2022-07-15T00:46:00;25.20;1.00
6609;DHT22;61468;48.79282455;9.06262200;2022-07-15T00:48:45;25.20;1.00
6609;DHT22;61468;48.79282455;9.06262200;2022-07-15T00:51:56;25.20;1.00
6609;DHT22;61468;48.79282455;9.06262200;2022-07-15T00:54:41;25.20;1.00
6609;DHT22;61468;48.79282455;9.06262200;2022-07-15T00:57:27;25.20;1.00
6609;DHT22;61468;48.79282455;9.06262200;2022-07-15T01:00:13;25.10;1.00
6609;DHT22;61468;48.79282455;9.06262200;2022-07-15T01:02:59;25.10;1.00
6609;DHT22;61468;48.79282455;9.06262200;2022-07-15T01:05:45;25.10;1.00
6609;DHT22;61468;48.79282455;9.06262200;2022-07-15T01:08:30;25.10;1.00
6609;DHT22;61468;48.79282455;9.06262200;2022-07-15T01:11:14;25.10;1.00
6609;DHT22;61468;48.79282455;9.06262200;2022-07-15T01:13:59;25.10;1.00
6609;DHT22;61468;48.79282455;9.06262200;2022-07-15T01:16:43;25.10;1.00
6609;DHT22;61468;48.79282455;9.06262200;2022-07-15T01:19:27;25.10;1.00
6609;DHT22;61468;48.79282455;9.06262200;2022-07-15T01:22:11;25.10;1.00
6609;DHT22;61468;48.79282455;9.06262200;2022-07-15T01:24:55;25.10;1.00
6609;DHT22;61468;48.79282455;9.06262200;2022-07-15T01:27:39;25.10;1.00
6609;DHT22;61468;48.79282455;9.06262200;2022-07-15T01:30:25;25.10;1.00
6609;DHT22;61468;48.79282455;9.06262200;2022-07-15T01:33:09;25.10;1.00
6609;DHT22;61468;48.79282455;9.06262200;2022-07-15T01:35:55;25.10;1.00
6609;DHT22;61468;48.79282455;9.06262200;2022-07-15T01:38:39;25.10;1.00
6609;DHT22;61468;48.79282455;9.06262200;2022-07-15T01:41:23;25.00;1.00
6609;DHT22;61468;48.79282455;9.06262200;2022-07-15T01:44:07;25.00;1.00
6609;DHT22;61468;48.79282455;9.06262200;2022-07-15T01:46:52;25.00;1.00
6609;DHT22;61468;48.79282455;9.06262200;2022-07-15T01:49:36;25.00;1.00
6609;DHT22;61468;48.79282455;9.06262200;2022-07-15T01:52:20;25.00;1.00
6609;DHT22;61468;48.79282455;9.06262200;2022-07-15T01:55:06;25.00;1.00
6609;DHT22;61468;48.79282455;9.06262200;2022-07-15T01:57:51;25.00;1.00
6609;DHT22;61468;48.79282455;9.06262200;2022-07-15T02:00:35;25.00;1.00
6609;DHT22;61468;48.79282455;9.06262200;2022-07-15T02:03:19;25.00;1.00
6609;DHT22;61468;48.79282455;9.06262200;2022-07-15T02:06:03;25.00;1.00
6609;DHT22;61468;48.79282455;9.06262200;2022-07-15T02:08:47;25.00;1.00
6609;DHT22;61468;48.79282455;9.06262200;2022-07-15T02:11:31;25.00;1.00
6609;DHT22;61468;48.79282455;9.06262200;2022-07-15T02:14:16;25.00;1.00
6609;DHT22;61468;48.79282455;9.06262200;2022-07-15T02:17:01;25.00;1.00
6609;DHT22;61468;48.79282455;9.06262200;2022-07-15T02:19:45;25.00;1.00
6609;DHT22;61468;48.79282455;9.06262200;2022-07-15T02:22:29;25.00;1.00
6609;DHT22;61468;48.79282455;9.06262200;2022-07-15T02:25:13;25.00;1.00
6609;DHT22;61468;48.79282455;9.06262200;2022-07-15T02:27:59;25.00;1.00
6609;DHT22;61468;48.79282455;9.06262200;2022-07-15T02:30:44;25.00;1.00
6609;DHT22;61468;48.79282455;9.06262200;2022-07-15T02:33:28;25.00;1.00
6609;DHT22;61468;48.79282455;9.06262200;2022-07-15T02:36:12;24.90;1.00
6609;DHT22;61468;48.79282455;9.06262200;2022-07-15T02:38:56;25.00;1.00
6609;DHT22;61468;48.79282455;9.06262200;2022-07-15T02:41:41;25.00;1.00
6609;DHT22;61468;48.79282455;9.06262200;2022-07-15T02:44:25;24.90;1.00
6609;DHT22;61468;48.79282455;9.06262200;2022-07-15T02:47:09;24.90;1.00
6609;DHT22;61468;48.79282455;9.06262200;2022-07-15T02:49:54;24.90;1.00
6609;DHT22;61468;48.79282455;9.06262200;2022-07-15T02:52:38;24.90;1.00
6609;DHT22;61468;48.79282455;9.06262200;2022-07-15T02:55:22;24.90;1.00
6609;DHT22;61468;48.79282455;9.06262200;2022-07-15T02:58:06;24.90;1.00
6609;DHT22;61468;48.79282455;9.06262200;2022-07-15T03:00:50;24.90;1.00
6609;DHT22;61468;48.79282455;9.06262200;2022-07-15T03:03:34;24.90;1.00
6609;DHT22;61468;48.79282455;9.06262200;2022-07-15T03:06:18;24.80;1.00
6609;DHT22;61468;48.79282455;9.06262200;2022-07-15T03:09:02;24.90;1.00
6609;DHT22;61468;48.79282455;9.06262200;2022-07-15T03:11:46;24.90;1.00
6609;DHT22;61468;48.79282455;9.06262200;2022-07-15T03:14:30;24.90;1.00
6609;DHT22;61468;48.79282455;9.06262200;2022-07-15T03:17:14;24.80;1.00
6609;DHT22;61468;48.79282455;9.06262200;2022-07-15T03:19:58;24.80;1.00
6609;DHT22;61468;48.79282455;9.06262200;2022-07-15T03:22:43;24.80;1.00
6609;DHT22;61468;48.79282455;9.06262200;2022-07-15T03:25:27;24.80;1.00
6609;DHT22;61468;48.79282455;9.06262200;2022-07-15T03:28:11;24.80;1.00
6609;DHT22;61468;48.79282455;9.06262200;2022-07-15T03:30:55;24.80;1.00
6609;DHT22;61468;48.79282455;9.06262200;2022-07-15T03:33:39;24.80;1.00
6609;DHT22;61468;48.79282455;9.06262200;2022-07-15T03:36:23;24.80;1.00
6609;DHT22;61468;48.79282455;9.06262200;2022-07-15T03:39:08;24.80;1.00
6609;DHT22;61468;48.79282455;9.06262200;2022-07-15T03:41:52;24.80;1.00
6609;DHT22;61468;48.79282455;9.06262200;2022-07-15T03:44:36;24.80;1.00
6609;DHT22;61468;48.79282455;9.06262200;2022-07-15T03:47:20;24.80;1.00
6609;DHT22;61468;48.79282455;9.06262200;2022-07-15T03:50:05;24.80;1.00
6609;DHT22;61468;48.79282455;9.06262200;2022-07-15T03:52:49;24.80;1.00
6609;DHT22;61468;48.79282455;9.06262200;2022-07-15T03:55:33;24.80;1.00
6609;DHT22;61468;48.79282455;9.06262200;2022-07-15T03:58:17;24.80;1.00
6609;DHT22;61468;48.79282455;9.06262200;2022-07-15T04:01:01;24.80;1.00
6609;DHT22;61468;48.79282455;9.06262200;2022-07-15T04:03:45;24.80;1.00
6609;DHT22;61468;48.79282455;9.06262200;2022-07-15T04:06:29;24.90;1.00
6609;DHT22;61468;48.79282455;9.06262200;2022-07-15T04:09:13;24.90;1.00
6609;DHT22;61468;48.79282455;9.06262200;2022-07-15T04:11:57;24.90;1.00
6609;DHT22;61468;48.79282455;9.06262200;2022-07-15T04:14:42;24.80;1.00
6609;DHT22;61468;48.79282455;9.06262200;2022-07-15T04:17:26;24.80;1.00
6609;DHT22;61468;48.79282455;9.06262200;2022-07-15T04:20:10;24.80;1.00
6609;DHT22;61468;48.79282455;9.06262200;2022-07-15T04:22:55;24.90;1.00
6609;DHT22;61468;48.79282455;9.06262200;2022-07-15T04:25:40;24.80;1.00
6609;DHT22;61468;48.79282455;9.06262200;2022-07-15T04:28:25;24.90;1.00
6609;DHT22;61468;48.79282455;9.06262200;2022-07-15T04:31:10;24.90;1.00
6609;DHT22;61468;48.79282455;9.06262200;2022-07-15T04:33:54;24.80;1.00
6609;DHT22;61468;48.79282455;9.06262200;2022-07-15T04:36:38;24.90;1.00
6609;DHT22;61468;48.79282455;9.06262200;2022-07-15T04:39:23;24.90;1.00
6609;DHT22;61468;48.79282455;9.06262200;2022-07-15T04:42:07;24.90;1.00
6609;DHT22;61468;48.79282455;9.06262200;2022-07-15T04:44:51;24.90;1.00
6609;DHT22;61468;48.79282455;9.06262200;2022-07-15T04:47:35;24.90;1.00
6609;DHT22;61468;48.79282455;9.06262200;2022-07-15T04:50:20;24.90;1.00
6609;DHT22;61468;48.79282455;9.06262200;2022-07-15T04:53:23;25.00;1.00
6609;DHT22;61468;48.79282455;9.06262200;2022-07-15T04:56:07;25.00;1.00
6609;DHT22;61468;48.79282455;9.06262200;2022-07-15T04:58:51;25.00;1.00
6609;DHT22;61468;48.79282455;9.06262200;2022-07-15T05:01:35;24.90;1.00
6609;DHT22;61468;48.79282455;9.06262200;2022-07-15T05:04:19;24.80;1.00
6609;DHT22;61468;48.79282455;9.06262200;2022-07-15T05:07:03;24.70;1.00
6609;DHT22;61468;48.79282455;9.06262200;2022-07-15T05:09:47;24.60;1.00
6609;DHT22;61468;48.79282455;9.06262200;2022-07-15T05:12:31;24.70;1.00
6609;DHT22;61468;48.79282455;9.06262200;2022-07-15T05:15:15;24.70;1.00
6609;DHT22;61468;48.79282455;9.06262200;2022-07-15T05:17:59;24.70;1.00
6609;DHT22;61468;48.79282455;9.06262200;2022-07-15T05:20:43;24.80;1.00
6609;DHT22;61468;48.79282455;9.06262200;2022-07-15T05:23:27;24.80;1.00
6609;DHT22;61468;48.79282455;9.06262200;2022-07-15T05:26:11;24.80;1.00
6609;DHT22;61468;48.79282455;9.06262200;2022-07-15T05:28:55;24.80;1.00
6609;DHT22;61468;48.79282455;9.06262200;2022-07-15T05:31:39;24.80;1.00
6609;DHT22;61468;48.79282455;9.06262200;2022-07-15T05:34:24;24.80;1.00
6609;DHT22;61468;48.79282455;9.06262200;2022-07-15T05:37:08;24.80;1.00
6609;DHT22;61468;48.79282455;9.06262200;2022-07-15T05:39:52;24.80;1.00
6609;DHT22;61468;48.79282455;9.06262200;2022-07-15T05:42:39;24.80;1.00
6609;DHT22;61468;48.79282455;9.06262200;2022-07-15T05:45:24;24.80;1.00
6609;DHT22;61468;48.79282455;9.06262200;2022-07-15T05:48:09;24.80;1.00
6609;DHT22;61468;48.79282455;9.06262200;2022-07-15T05:50:53;24.80;1.00
6609;DHT22;61468;48.79282455;9.06262200;2022-07-15T05:53:37;24.80;1.00
6609;DHT22;61468;48.79282455;9.06262200;2022-07-15T05:56:21;24.80;1.00
6609;DHT22;61468;48.79282455;9.06262200;2022-07-15T05:59:05;24.80;1.00
6609;DHT22;61468;48.79282455;9.06262200;2022-07-15T06:01:50;24.90;1.00
6609;DHT22;61468;48.79282455;9.06262200;2022-07-15T06:04:34;24.80;1.00
6609;DHT22;61468;48.79282455;9.06262200;2022-07-15T06:07:18;24.90;1.00
6609;DHT22;61468;48.79282455;9.06262200;2022-07-15T06:10:04;24.90;1.00
6609;DHT22;61468;48.79282455;9.06262200;2022-07-15T06:12:48;24.90;1.00
6609;DHT22;61468;48.79282455;9.06262200;2022-07-15T06:15:33;24.80;1.00
6609;DHT22;61468;48.79282455;9.06262200;2022-07-15T06:18:16;24.80;1.00
6609;DHT22;61468;48.79282455;9.06262200;2022-07-15T06:21:00;24.80;1.00
6609;DHT22;61468;48.79282455;9.06262200;2022-07-15T06:23:45;24.80;1.00
6609;DHT22;61468;48.79282455;9.06262200;2022-07-15T06:26:29;24.80;1.00
6609;DHT22;61468;48.79282455;9.06262200;2022-07-15T06:29:13;24.90;1.00
6609;DHT22;61468;48.79282455;9.06262200;2022-07-15T06:31:57;24.90;1.00
6609;DHT22;61468;48.79282455;9.06262200;2022-07-15T06:34:41;24.90;1.00
6609;DHT22;61468;48.79282455;9.06262200;2022-07-15T06:37:26;24.90;1.00
6609;DHT22;61468;48.79282455;9.06262200;2022-07-15T06:40:11;24.90;1.00
6609;DHT22;61468;48.79282455;9.06262200;2022-07-15T06:42:55;24.90;1.00
6609;DHT22;61468;48.79282455;9.06262200;2022-07-15T06:45:40;24.90;1.00
6609;DHT22;61468;48.79282455;9.06262200;2022-07-15T06:48:24;25.00;1.00
6609;DHT22;61468;48.79282455;9.06262200;2022-07-15T06:51:09;25.00;1.00
6609;DHT22;61468;48.79282455;9.06262200;2022-07-15T06:53:53;25.00;1.00
6609;DHT22;61468;48.79282455;9.06262200;2022-07-15T06:56:38;24.90;1.00
6609;DHT22;61468;48.79282455;9.06262200;2022-07-15T06:59:22;25.00;1.00
6609;DHT22;61468;48.79282455;9.06262200;2022-07-15T07:02:07;25.00;1.00
6609;DHT22;61468;48.79282455;9.06262200;2022-07-15T07:04:51;25.00;1.00
6609;DHT22;61468;48.79282455;9.06262200;2022-07-15T07:07:35;25.00;1.00
6609;DHT22;61468;48.79282455;9.06262200;2022-07-15T07:10:19;25.00;1.00
6609;DHT22;61468;48.79282455;9.06262200;2022-07-15T07:13:03;25.00;1.00
6609;DHT22;61468;48.79282455;9.06262200;2022-07-15T07:15:47;25.00;1.00
6609;DHT22;61468;48.79282455;9.06262200;2022-07-15T07:18:31;25.00;1.00
6609;DHT22;61468;48.79282455;9.06262200;2022-07-15T07:21:16;25.00;1.00
6609;DHT22;61468;48.79282455;9.06262200;2022-07-15T07:24:00;25.00;1.00
6609;DHT22;61468;48.79282455;9.06262200;2022-07-15T07:26:44;25.00;1.00
6609;DHT22;61468;48.79282455;9.06262200;2022-07-15T07:29:28;25.00;1.00
6609;DHT22;61468;48.79282455;9.06262200;2022-07-15T07:32:12;25.10;1.00
6609;DHT22;61468;48.79282455;9.06262200;2022-07-15T07:34:56;25.10;1.00
6609;DHT22;61468;48.79282455;9.06262200;2022-07-15T07:37:41;25.00;1.00
6609;DHT22;61468;48.79282455;9.06262200;2022-07-15T07:40:25;25.10;1.00
6609;DHT22;61468;48.79282455;9.06262200;2022-07-15T07:43:09;25.10;1.00
6609;DHT22;61468;48.79282455;9.06262200;2022-07-15T07:45:54;25.10;1.00
6609;DHT22;61468;48.79282455;9.06262200;2022-07-15T07:48:38;25.10;1.00
6609;DHT22;61468;48.79282455;9.06262200;2022-07-15T07:51:23;25.00;1.00
6609;DHT22;61468;48.79282455;9.06262200;2022-07-15T07:54:08;25.10;1.00
6609;DHT22;61468;48.79282455;9.06262200;2022-07-15T07:56:53;25.10;1.00
6609;DHT22;61468;48.79282455;9.06262200;2022-07-15T07:59:37;25.10;1.00
6609;DHT22;61468;48.79282455;9.06262200;2022-07-15T08:02:21;25.10;1.00
6609;DHT22;61468;48.79282455;9.06262200;2022-07-15T08:05:06;25.10;1.00
6609;DHT22;61468;48.79282455;9.06262200;2022-07-15T08:07:50;25.10;1.00
6609;DHT22;61468;48.79282455;9.06262200;2022-07-15T08:10:35;25.10;1.00
6609;DHT22;61468;48.79282455;9.06262200;2022-07-15T08:13:20;25.20;1.00
6609;DHT22;61468;48.79282455;9.06262200;2022-07-15T08:16:05;25.10;1.00
6609;DHT22;61468;48.79282455;9.06262200;2022-07-15T08:18:50;25.10;1.00
6609;DHT22;61468;48.79282455;9.06262200;2022-07-15T08:21:34;25.10;1.00
6609;DHT22;61468;48.79282455;9.06262200;2022-07-15T08:24:18;25.10;1.00
6609;DHT22;61468;48.79282455;9.06262200;2022-07-15T08:27:02;25.20;1.00
6609;DHT22;61468;48.79282455;9.06262200;2022-07-15T08:29:47;25.20;1.00
6609;DHT22;61468;48.79282455;9.06262200;2022-07-15T08:32:31;25.20;1.00
6609;DHT22;61468;48.79282455;9.06262200;2022-07-15T08:35:15;25.20;1.00
6609;DHT22;61468;48.79282455;9.06262200;2022-07-15T08:38:03;25.20;1.00
6609;DHT22;61468;48.79282455;9.06262200;2022-07-15T08:40:49;25.20;1.00
6609;DHT22;61468;48.79282455;9.06262200;2022-07-15T08:43:33;25.20;1.00
6609;DHT22;61468;48.79282455;9.06262200;2022-07-15T08:46:19;25.20;1.00
6609;DHT22;61468;48.79282455;9.06262200;2022-07-15T08:49:08;25.20;1.00
6609;DHT22;61468;48.79282455;9.06262200;2022-07-15T08:51:57;25.20;1.00
6609;DHT22;61468;48.79282455;9.06262200;2022-07-15T08:54:42;25.20;1.00
6609;DHT22;61468;48.79282455;9.06262200;2022-07-15T08:57:26;25.20;1.00
6609;DHT22;61468;48.79282455;9.06262200;2022-07-15T09:00:11;25.30;1.00
6609;DHT22;61468;48.79282455;9.06262200;2022-07-15T09:03:00;25.20;1.00
6609;DHT22;61468;48.79282455;9.06262200;2022-07-15T09:05:44;25.20;1.00
6609;DHT22;61468;48.79282455;9.06262200;2022-07-15T09:08:29;25.20;1.00
6609;DHT22;61468;48.79282455;9.06262200;2022-07-15T09:11:14;25.20;1.00
6609;DHT22;61468;48.79282455;9.06262200;2022-07-15T09:13:59;25.20;1.00
6609;DHT22;61468;48.79282455;9.06262200;2022-07-15T09:16:44;25.20;1.00
6609;DHT22;61468;48.79282455;9.06262200;2022-07-15T09:19:29;25.20;1.00
6609;DHT22;61468;48.79282455;9.06262200;2022-07-15T09:22:54;25.20;1.00
6609;DHT22;61468;48.79282455;9.06262200;2022-07-15T09:25:42;25.20;1.00
6609;DHT22;61468;48.79282455;9.06262200;2022-07-15T09:28:40;25.20;1.00
6609;DHT22;61468;48.79282455;9.06262200;2022-07-15T09:31:32;25.20;1.00
6609;DHT22;61468;48.79282455;9.06262200;2022-07-15T09:34:58;25.30;1.00
6609;DHT22;61468;48.79282455;9.06262200;2022-07-15T09:37:55;25.30;1.00
6609;DHT22;61468;48.79282455;9.06262200;2022-07-15T09:40:49;25.30;1.00
6609;DHT22;61468;48.79282455;9.06262200;2022-07-15T09:43:51;25.30;1.00
6609;DHT22;61468;48.79282455;9.06262200;2022-07-15T09:52:11;25.20;1.00
6609;DHT22;61468;48.79282455;9.06262200;2022-07-15T09:54:55;25.20;1.00
6609;DHT22;61468;48.79282455;9.06262200;2022-07-15T09:57:40;25.20;1.00
6609;DHT22;61468;48.79282455;9.06262200;2022-07-15T10:00:24;25.20;1.00
6609;DHT22;61468;48.79282455;9.06262200;2022-07-15T10:03:09;25.20;1.00
6609;DHT22;61468;48.79282455;9.06262200;2022-07-15T10:05:53;25.20;1.00
6609;DHT22;61468;48.79282455;9.06262200;2022-07-15T10:08:45;25.30;1.00
6609;DHT22;61468;48.79282455;9.06262200;2022-07-15T10:11:34;25.30;1.00
6609;DHT22;61468;48.79282455;9.06262200;2022-07-15T10:20:46;25.20;1.00
6609;DHT22;61468;48.79282455;9.06262200;2022-07-15T10:26:32;25.30;1.00
6609;DHT22;61468;48.79282455;9.06262200;2022-07-15T10:29:22;25.30;1.00
6609;DHT22;61468;48.79282455;9.06262200;2022-07-15T10:32:06;25.30;1.00
6609;DHT22;61468;48.79282455;9.06262200;2022-07-15T10:34:50;25.30;1.00
6609;DHT22;61468;48.79282455;9.06262200;2022-07-15T10:37:35;25.30;1.00
6609;DHT22;61468;48.79282455;9.06262200;2022-07-15T10:40:19;25.30;1.00
6609;DHT22;61468;48.79282455;9.06262200;2022-07-15T10:43:04;25.30;1.00
6609;DHT22;61468;48.79282455;9.06262200;2022-07-15T10:46:04;25.30;1.00
6609;DHT22;61468;48.79282455;9.06262200;2022-07-15T10:51:44;25.30;1.00
6609;DHT22;61468;48.79282455;9.06262200;2022-07-15T10:57:15;25.30;1.00
6609;DHT22;61468;48.79282455;9.06262200;2022-07-15T11:00:00;25.30;1.00
6609;DHT22;61468;48.79282455;9.06262200;2022-07-15T11:03:21;25.40;1.00
6609;DHT22;61468;48.79282455;9.06262200;2022-07-15T11:06:05;25.40;1.00
6609;DHT22;61468;48.79282455;9.06262200;2022-07-15T11:08:50;25.40;1.00
6609;DHT22;61468;48.79282455;9.06262200;2022-07-15T11:11:45;25.40;1.00
6609;DHT22;61468;48.79282455;9.06262200;2022-07-15T11:14:48;25.40;1.00
6609;DHT22;61468;48.79282455;9.06262200;2022-07-15T11:20:19;25.40;1.00
6609;DHT22;61468;48.79282455;9.06262200;2022-07-15T11:23:03;25.40;1.00
6609;DHT22;61468;48.79282455;9.06262200;2022-07-15T11:25:49;25.50;1.00
6609;DHT22;61468;48.79282455;9.06262200;2022-07-15T11:28:35;25.50;1.00
6609;DHT22;61468;48.79282455;9.06262200;2022-07-15T11:31:21;25.50;1.00
6609;DHT22;61468;48.79282455;9.06262200;2022-07-15T11:34:06;25.50;1.00
6609;DHT22;61468;48.79282455;9.06262200;2022-07-15T11:36:58;25.50;1.00
6609;DHT22;61468;48.79282455;9.06262200;2022-07-15T11:39:42;25.50;1.00
6609;DHT22;61468;48.79282455;9.06262200;2022-07-15T11:42:26;25.60;1.00
6609;DHT22;61468;48.79282455;9.06262200;2022-07-15T11:45:37;25.60;1.00
6609;DHT22;61468;48.79282455;9.06262200;2022-07-15T11:48:21;25.60;1.00
6609;DHT22;61468;48.79282455;9.06262200;2022-07-15T11:51:07;25.60;1.00
6609;DHT22;61468;48.79282455;9.06262200;2022-07-15T11:53:51;25.60;1.00
6609;DHT22;61468;48.79282455;9.06262200;2022-07-15T11:56:36;25.60;1.00
6609;DHT22;61468;48.79282455;9.06262200;2022-07-15T11:59:20;25.60;1.00
6609;DHT22;61468;48.79282455;9.06262200;2022-07-15T12:02:13;25.60;1.00
6609;DHT22;61468;48.79282455;9.06262200;2022-07-15T12:05:07;25.60;1.00
6609;DHT22;61468;48.79282455;9.06262200;2022-07-15T12:07:51;25.60;1.00
6609;DHT22;61468;48.79282455;9.06262200;2022-07-15T12:10:36;25.70;1.00
6609;DHT22;61468;48.79282455;9.06262200;2022-07-15T12:13:21;25.70;1.00
6609;DHT22;61468;48.79282455;9.06262200;2022-07-15T12:16:06;25.70;1.00
6609;DHT22;61468;48.79282455;9.06262200;2022-07-15T12:18:55;25.70;1.00
6609;DHT22;61468;48.79282455;9.06262200;2022-07-15T12:21:41;25.70;1.00
6609;DHT22;61468;48.79282455;9.06262200;2022-07-15T12:24:39;25.70;1.00
6609;DHT22;61468;48.79282455;9.06262200;2022-07-15T12:27:36;25.80;1.00
6609;DHT22;61468;48.79282455;9.06262200;2022-07-15T12:30:36;25.80;1.00
6609;DHT22;61468;48.79282455;9.06262200;2022-07-15T12:33:22;25.80;1.00
6609;DHT22;61468;48.79282455;9.06262200;2022-07-15T12:36:15;25.90;1.00
6609;DHT22;61468;48.79282455;9.06262200;2022-07-15T12:39:14;25.90;1.00
6609;DHT22;61468;48.79282455;9.06262200;2022-07-15T12:42:04;25.90;1.00
6609;DHT22;61468;48.79282455;9.06262200;2022-07-15T12:45:17;25.80;1.00
6609;DHT22;61468;48.79282455;9.06262200;2022-07-15T12:48:12;25.90;1.00
6609;DHT22;61468;48.79282455;9.06262200;2022-07-15T12:51:00;25.90;1.00
6609;DHT22;61468;48.79282455;9.06262200;2022-07-15T12:53:44;25.90;1.00
6609;DHT22;61468;48.79282455;9.06262200;2022-07-15T12:56:29;25.90;1.00
6609;DHT22;61468;48.79282455;9.06262200;2022-07-15T12:59:14;26.00;1.00
6609;DHT22;61468;48.79282455;9.06262200;2022-07-15T13:02:03;26.00;1.00
6609;DHT22;61468;48.79282455;9.06262200;2022-07-15T13:04:48;26.00;1.00
6609;DHT22;61468;48.79282455;9.06262200;2022-07-15T13:07:32;26.00;1.00
6609;DHT22;61468;48.79282455;9.06262200;2022-07-15T13:10:16;26.00;1.00
6609;DHT22;61468;48.79282455;9.06262200;2022-07-15T13:13:01;26.00;1.00
6609;DHT22;61468;48.79282455;9.06262200;2022-07-15T13:15:46;26.00;1.00
6609;DHT22;61468;48.79282455;9.06262200;2022-07-15T13:18:32;26.10;1.00
6609;DHT22;61468;48.79282455;9.06262200;2022-07-15T13:21:16;26.10;1.00
6609;DHT22;61468;48.79282455;9.06262200;2022-07-15T13:24:00;26.10;1.00
6609;DHT22;61468;48.79282455;9.06262200;2022-07-15T13:26:44;26.10;1.00
6609;DHT22;61468;48.79282455;9.06262200;2022-07-15T13:29:28;26.20;1.00
6609;DHT22;61468;48.79282455;9.06262200;2022-07-15T13:32:12;26.20;1.00
6609;DHT22;61468;48.79282455;9.06262200;2022-07-15T13:34:57;26.30;1.00
6609;DHT22;61468;48.79282455;9.06262200;2022-07-15T13:37:42;26.30;1.00
6609;DHT22;61468;48.79282455;9.06262200;2022-07-15T13:40:26;26.30;1.00
6609;DHT22;61468;48.79282455;9.06262200;2022-07-15T13:43:10;26.40;1.00
6609;DHT22;61468;48.79282455;9.06262200;2022-07-15T13:45:54;26.40;1.00
6609;DHT22;61468;48.79282455;9.06262200;2022-07-15T13:48:39;26.40;1.00
6609;DHT22;61468;48.79282455;9.06262200;2022-07-15T13:51:23;26.50;1.00
6609;DHT22;61468;48.79282455;9.06262200;2022-07-15T13:54:08;26.50;1.00
6609;DHT22;61468;48.79282455;9.06262200;2022-07-15T13:56:53;26.60;1.00
6609;DHT22;61468;48.79282455;9.06262200;2022-07-15T13:59:37;26.50;1.00
6609;DHT22;61468;48.79282455;9.06262200;2022-07-15T14:02:21;26.60;1.00
6609;DHT22;61468;48.79282455;9.06262200;2022-07-15T14:05:06;26.60;1.00
6609;DHT22;61468;48.79282455;9.06262200;2022-07-15T14:07:51;26.70;1.00
6609;DHT22;61468;48.79282455;9.06262200;2022-07-15T14:10:35;26.70;1.00
6609;DHT22;61468;48.79282455;9.06262200;2022-07-15T14:13:19;26.70;1.00
6609;DHT22;61468;48.79282455;9.06262200;2022-07-15T14:16:04;26.70;1.00
6609;DHT22;61468;48.79282455;9.06262200;2022-07-15T14:18:48;26.70;1.00
6609;DHT22;61468;48.79282455;9.06262200;2022-07-15T14:21:34;26.80;1.00
6609;DHT22;61468;48.79282455;9.06262200;2022-07-15T14:24:18;26.90;1.00
6609;DHT22;61468;48.79282455;9.06262200;2022-07-15T14:27:05;26.90;1.00
6609;DHT22;61468;48.79282455;9.06262200;2022-07-15T14:29:49;26.90;1.00
6609;DHT22;61468;48.79282455;9.06262200;2022-07-15T14:32:34;26.80;1.00
6609;DHT22;61468;48.79282455;9.06262200;2022-07-15T14:35:18;26.90;1.00
6609;DHT22;61468;48.79282455;9.06262200;2022-07-15T14:38:02;26.90;1.00
6609;DHT22;61468;48.79282455;9.06262200;2022-07-15T14:40:47;26.90;1.00
6609;DHT22;61468;48.79282455;9.06262200;2022-07-15T14:43:31;26.90;1.00
6609;DHT22;61468;48.79282455;9.06262200;2022-07-15T14:46:16;26.90;1.00
6609;DHT22;61468;48.79282455;9.06262200;2022-07-15T14:49:00;26.90;1.00
6609;DHT22;61468;48.79282455;9.06262200;2022-07-15T14:51:44;26.90;1.00
6609;DHT22;61468;48.79282455;9.06262200;2022-07-15T14:54:28;26.90;1.00
6609;DHT22;61468;48.79282455;9.06262200;2022-07-15T14:57:12;27.00;1.00
6609;DHT22;61468;48.79282455;9.06262200;2022-07-15T14:59:56;27.00;1.00
6609;DHT22;61468;48.79282455;9.06262200;2022-07-15T15:02:41;27.00;1.00
6609;DHT22;61468;48.79282455;9.06262200;2022-07-15T15:05:25;27.00;1.00
6609;DHT22;61468;48.79282455;9.06262200;2022-07-15T15:08:09;27.10;1.00
6609;DHT22;61468;48.79282455;9.06262200;2022-07-15T15:10:53;27.10;1.00
6609;DHT22;61468;48.79282455;9.06262200;2022-07-15T15:13:37;27.10;1.00
6609;DHT22;61468;48.79282455;9.06262200;2022-07-15T15:16:21;27.10;1.00
6609;DHT22;61468;48.79282455;9.06262200;2022-07-15T15:19:05;27.20;1.00
6609;DHT22;61468;48.79282455;9.06262200;2022-07-15T15:21:49;27.20;1.00
6609;DHT22;61468;48.79282455;9.06262200;2022-07-15T15:24:33;27.20;1.00
6609;DHT22;61468;48.79282455;9.06262200;2022-07-15T15:27:18;27.20;1.00
6609;DHT22;61468;48.79282455;9.06262200;2022-07-15T15:30:04;27.20;1.00
6609;DHT22;61468;48.79282455;9.06262200;2022-07-15T15:32:48;27.20;1.00
6609;DHT22;61468;48.79282455;9.06262200;2022-07-15T15:35:36;27.20;1.00
6609;DHT22;61468;48.79282455;9.06262200;2022-07-15T15:38:20;27.20;1.00
6609;DHT22;61468;48.79282455;9.06262200;2022-07-15T15:41:04;27.30;1.00
6609;DHT22;61468;48.79282455;9.06262200;2022-07-15T15:43:49;27.20;1.00
6609;DHT22;61468;48.79282455;9.06262200;2022-07-15T15:46:33;27.20;1.00
6609;DHT22;61468;48.79282455;9.06262200;2022-07-15T15:49:17;27.30;1.00
6609;DHT22;61468;48.79282455;9.06262200;2022-07-15T15:52:02;27.30;1.00
6609;DHT22;61468;48.79282455;9.06262200;2022-07-15T15:54:46;27.30;1.00